createdAt,value
2018-04-11T00:00:26.598Z,95889.88
2018-04-11T00:02:52.436Z,95884.81
2018-04-11T00:05:18.273Z,95878.84
2018-04-11T00:07:44.126Z,95880.33
2018-04-11T00:10:09.984Z,95881.62
2018-04-11T00:12:35.833Z,95885.79
2018-04-11T00:15:01.667Z,95878.80
2018-04-11T00:17:27.505Z,95871.06
2018-04-11T00:19:53.365Z,95878.34
2018-04-11T00:22:19.212Z,95880.19
2018-04-11T00:24:45.063Z,95880.19
2018-04-11T00:27:10.941Z,95875.72
2018-04-11T00:29:36.812Z,95881.99
2018-04-11T00:32:02.695Z,95878.84
2018-04-11T00:34:28.560Z,95876.00
2018-04-11T00:36:54.421Z,95873.54
2018-04-11T00:39:20.253Z,95877.16
2018-04-11T00:41:46.115Z,95878.46
2018-04-11T00:44:11.933Z,95879.13
2018-04-11T00:46:37.769Z,95875.38
2018-04-11T00:49:03.609Z,95874.92
2018-04-11T00:51:29.429Z,95873.95
2018-04-11T00:53:55.253Z,95872.17
2018-04-11T00:56:21.078Z,95866.84
2018-04-11T00:58:46.956Z,95869.27
2018-04-11T01:01:12.796Z,95872.64
2018-04-11T01:03:38.613Z,95872.10
2018-04-11T01:06:04.433Z,95871.22
2018-04-11T01:08:30.273Z,95868.18
2018-04-11T01:10:56.090Z,95865.22
2018-04-11T01:13:21.928Z,95874.32
2018-04-11T01:15:47.752Z,95876.72
2018-04-11T01:18:13.597Z,95876.70
2018-04-11T01:20:39.430Z,95876.00
2018-04-11T01:23:05.254Z,95876.87
2018-04-11T01:25:31.082Z,95881.83
2018-04-11T01:27:56.939Z,95875.52
2018-04-11T01:30:22.827Z,95871.66
2018-04-11T01:32:48.672Z,95871.86
2018-04-11T01:35:14.548Z,95876.63
2018-04-11T01:37:40.379Z,95878.68
2018-04-11T01:40:06.256Z,95872.75
2018-04-11T01:42:32.118Z,95860.64
2018-04-11T01:44:57.996Z,95865.88
2018-04-11T01:47:23.828Z,95867.89
2018-04-11T01:49:49.668Z,95869.06
2018-04-11T01:52:15.512Z,95864.30
2018-04-11T01:54:41.369Z,95869.03
2018-04-11T01:57:07.212Z,95872.59
2018-04-11T01:59:33.057Z,95870.86
2018-04-11T02:01:58.904Z,95870.56
2018-04-11T02:04:24.758Z,95877.55
2018-04-11T02:06:50.619Z,95873.26
2018-04-11T02:09:16.502Z,95876.95
2018-04-11T02:11:42.388Z,95872.66
2018-04-11T02:14:08.247Z,95878.63
2018-04-11T02:16:34.145Z,95875.09
2018-04-11T02:18:59.980Z,95877.67
2018-04-11T02:21:25.868Z,95877.25
2018-04-11T02:23:51.694Z,95869.73
2018-04-11T02:26:17.582Z,95865.11
2018-04-11T02:28:43.452Z,95869.80
2018-04-11T02:31:09.308Z,95865.97
2018-04-11T02:33:35.168Z,95864.61
2018-04-11T02:36:01.021Z,95857.28
2018-04-11T02:38:26.884Z,95863.33
2018-04-11T02:40:52.761Z,95856.73
2018-04-11T02:43:18.640Z,95848.33
2018-04-11T02:45:44.519Z,95841.26
2018-04-11T02:48:10.380Z,95843.38
2018-04-11T02:50:36.241Z,95851.70
2018-04-11T02:53:02.092Z,95849.48
2018-04-11T02:55:27.927Z,95845.50
2018-04-11T02:57:53.768Z,95847.80
2018-04-11T03:00:19.646Z,95858.51
2018-04-11T03:02:45.555Z,95858.99
2018-04-11T03:05:11.416Z,95866.55
2018-04-11T03:07:37.284Z,95866.18
2018-04-11T03:10:03.216Z,95876.87
2018-04-11T03:12:29.067Z,95890.91
2018-04-11T03:14:54.905Z,95908.48
2018-04-11T03:17:20.748Z,95914.28
2018-04-11T03:19:46.578Z,95921.97
2018-04-11T03:22:12.429Z,95918.73
2018-04-11T03:24:38.289Z,95924.93
2018-04-11T03:27:04.152Z,95919.08
2018-04-11T03:29:30.020Z,95918.70
2018-04-11T03:31:55.866Z,95915.07
2018-04-11T03:34:21.756Z,95909.58
2018-04-11T03:36:47.615Z,95911.47
2018-04-11T03:39:13.474Z,95911.16
2018-04-11T03:41:39.334Z,95905.20
2018-04-11T03:44:05.181Z,95901.88
2018-04-11T03:46:31.036Z,95901.53
2018-04-11T03:48:56.891Z,95905.75
2018-04-11T03:51:22.777Z,95905.80
2018-04-11T03:53:48.611Z,95913.68
2018-04-11T03:56:14.459Z,95907.03
2018-04-11T03:58:40.295Z,95898.55
2018-04-11T04:01:06.149Z,95901.48
2018-04-11T04:03:32.013Z,95907.07
2018-04-11T04:05:57.860Z,95906.86
2018-04-11T04:08:23.722Z,95905.32
2018-04-11T04:10:49.597Z,95902.00
2018-04-11T04:13:15.513Z,95906.36
2018-04-11T04:15:53.689Z,95911.47
2018-04-11T04:18:31.888Z,95907.72
2018-04-11T04:20:57.705Z,95909.77
2018-04-11T04:23:23.567Z,95907.91
2018-04-11T04:25:49.453Z,95907.97
2018-04-11T04:28:15.312Z,95910.66
2018-04-11T04:30:41.177Z,95908.13
2018-04-11T04:33:07.076Z,95912.36
2018-04-11T04:35:32.968Z,95909.11
2018-04-11T04:37:58.809Z,95908.29
2018-04-11T04:40:24.633Z,95909.68
2018-04-11T04:42:50.478Z,95910.28
2018-04-11T04:45:16.418Z,95911.39
2018-04-11T04:47:42.241Z,95911.00
2018-04-11T04:50:08.070Z,95917.27
2018-04-11T04:52:33.924Z,95917.81
2018-04-11T04:54:59.805Z,95907.28
2018-04-11T04:57:25.713Z,95917.52
2018-04-11T04:59:51.564Z,95916.57
2018-04-11T05:02:17.608Z,95915.02
2018-04-11T05:04:43.506Z,95918.20
2018-04-11T05:07:09.364Z,95916.17
2018-04-11T05:09:35.227Z,95917.13
2018-04-11T05:12:01.085Z,95920.97
2018-04-11T05:14:26.943Z,95920.63
2018-04-11T05:16:52.780Z,95929.94
2018-04-11T05:19:18.636Z,95926.73
2018-04-11T05:21:44.488Z,95931.67
2018-04-11T05:24:10.345Z,95939.06
2018-04-11T05:26:36.168Z,95933.89
2018-04-11T05:29:02.041Z,95937.70
2018-04-11T05:31:27.871Z,95941.77
2018-04-11T05:33:53.744Z,95939.30
2018-04-11T05:36:19.616Z,95936.88
2018-04-11T05:38:45.708Z,95933.13
2018-04-11T05:41:11.553Z,95933.94
2018-04-11T05:43:37.459Z,95930.86
2018-04-11T05:46:03.369Z,95934.88
2018-04-11T05:48:29.208Z,95936.77
2018-04-11T05:50:55.032Z,95940.21
2018-04-11T05:53:20.851Z,95937.82
2018-04-11T05:55:46.721Z,95945.89
2018-04-11T05:58:12.585Z,95942.55
2018-04-11T06:00:38.482Z,95945.63
2018-04-11T06:03:04.332Z,95951.94
2018-04-11T06:05:30.193Z,95958.93
2018-04-11T06:07:56.105Z,95959.48
2018-04-11T06:10:21.996Z,95966.35
2018-04-11T06:12:47.860Z,95968.23
2018-04-11T06:15:13.701Z,95967.45
2018-04-11T06:17:39.552Z,95969.49
2018-04-11T06:20:05.403Z,95980.52
2018-04-11T06:22:31.242Z,95979.72
2018-04-11T06:24:57.095Z,95982.14
2018-04-11T06:27:22.933Z,95973.48
2018-04-11T06:29:48.812Z,95981.25
2018-04-11T06:32:14.672Z,95988.71
2018-04-11T06:34:40.528Z,95990.20
2018-04-11T06:37:06.401Z,95996.73
2018-04-11T06:39:32.253Z,95992.77
2018-04-11T06:41:58.196Z,95997.30
2018-04-11T06:44:24.038Z,95995.45
2018-04-11T06:46:49.906Z,95995.71
2018-04-11T06:49:15.786Z,95991.02
2018-04-11T06:51:41.660Z,95990.77
2018-04-11T06:54:07.545Z,95986.37
2018-04-11T06:56:33.428Z,95989.45
2018-04-11T06:58:59.260Z,95984.71
2018-04-11T07:01:25.116Z,95986.82
2018-04-11T07:03:51.005Z,95984.77
2018-04-11T07:06:16.849Z,95990.16
2018-04-11T07:08:42.689Z,95987.00
2018-04-11T07:11:08.491Z,95988.39
2018-04-11T07:13:34.341Z,95993.65
2018-04-11T07:16:00.157Z,95988.42
2018-04-11T07:18:26.000Z,95987.44
2018-04-11T07:20:51.844Z,95987.69
2018-04-11T07:23:17.678Z,95989.87
2018-04-11T07:25:43.518Z,95990.58
2018-04-11T07:28:09.414Z,95993.70
2018-04-11T07:30:35.268Z,95990.19
2018-04-11T07:33:01.132Z,95997.16
2018-04-11T07:35:26.978Z,95993.87
2018-04-11T07:37:52.832Z,95994.70
2018-04-11T07:40:18.715Z,96002.16
2018-04-11T07:42:44.540Z,96004.77
2018-04-11T07:45:10.411Z,95999.72
2018-04-11T07:47:36.225Z,96002.52
2018-04-11T07:50:02.075Z,95998.09
2018-04-11T07:52:27.947Z,96002.52
2018-04-11T07:54:53.801Z,96007.50
2018-04-11T07:57:19.617Z,96009.04
2018-04-11T07:59:45.465Z,96011.25
2018-04-11T08:02:11.313Z,96011.91
2018-04-11T08:04:37.174Z,96012.04
2018-04-11T08:07:03.005Z,96015.89
2018-04-11T08:09:28.880Z,96007.87
2018-04-11T08:11:54.718Z,96007.30
2018-04-11T08:14:20.635Z,96012.30
2018-04-11T08:16:46.500Z,95999.05
2018-04-11T08:19:12.350Z,96003.33
2018-04-11T08:21:38.217Z,95995.92
2018-04-11T08:24:04.008Z,96011.34
2018-04-11T08:26:29.876Z,95992.55
2018-04-11T08:28:55.740Z,96001.89
2018-04-11T08:31:21.612Z,96005.77
2018-04-11T08:33:47.485Z,96012.19
2018-04-11T08:36:13.381Z,96015.05
2018-04-11T08:38:39.236Z,96014.87
2018-04-11T08:41:05.132Z,96014.08
2018-04-11T08:43:30.981Z,96021.95
2018-04-11T08:45:56.868Z,96021.64
2018-04-11T08:48:22.711Z,96017.14
2018-04-11T08:50:48.568Z,96015.05
2018-04-11T08:53:14.432Z,96013.30
2018-04-11T08:55:40.284Z,96019.58
2018-04-11T08:58:06.177Z,96018.05
2018-04-11T09:00:32.028Z,96033.68
2018-04-11T09:02:57.869Z,96025.38
2018-04-11T09:05:23.820Z,96032.73
2018-04-11T09:07:49.590Z,96038.08
2018-04-11T09:10:15.401Z,96034.94
2018-04-11T09:12:41.279Z,96033.55
2018-04-11T09:15:07.139Z,96040.02
2018-04-11T09:17:32.978Z,96030.32
2018-04-11T09:19:58.844Z,96035.06
2018-04-11T09:22:24.670Z,96034.00
2018-04-11T09:24:50.523Z,96036.32
2018-04-11T09:27:16.362Z,96039.10
2018-04-11T09:29:42.207Z,96042.53
2018-04-11T09:32:08.056Z,96041.19
2018-04-11T09:34:33.923Z,96030.55
2018-04-11T09:36:59.788Z,96043.69
2018-04-11T09:39:25.649Z,96038.45
2018-04-11T09:41:51.567Z,96038.66
2018-04-11T09:44:17.374Z,96032.84
2018-04-11T09:46:43.232Z,96037.98
2018-04-11T09:49:09.086Z,96033.28
2018-04-11T09:51:34.941Z,96043.16
2018-04-11T09:54:00.786Z,96042.84
2018-04-11T09:56:26.643Z,96041.44
2018-04-11T09:58:52.501Z,96035.06
2018-04-11T10:01:18.373Z,96042.88
2018-04-11T10:03:45.078Z,96041.69
2018-04-11T10:06:10.989Z,96038.65
2018-04-11T10:08:36.830Z,96031.34
2018-04-11T10:11:02.705Z,96045.90
2018-04-11T10:13:28.568Z,96046.56
2018-04-11T10:15:54.424Z,96042.41
2018-04-11T10:18:20.294Z,96039.52
2018-04-11T10:20:46.154Z,96036.17
2018-04-11T10:23:12.025Z,96034.48
2018-04-11T10:25:37.890Z,96030.81
2018-04-11T10:28:03.770Z,96033.94
2018-04-11T10:30:29.640Z,96031.58
2018-04-11T10:32:55.488Z,96032.07
2018-04-11T10:35:21.352Z,96030.41
2018-04-11T10:37:47.231Z,96028.53
2018-04-11T10:40:13.109Z,96029.86
2018-04-11T10:42:38.932Z,96029.77
2018-04-11T10:45:04.822Z,96029.13
2018-04-11T10:47:30.705Z,96021.15
2018-04-11T10:49:56.571Z,96021.29
2018-04-11T10:52:22.436Z,96020.41
2018-04-11T10:54:48.323Z,96024.92
2018-04-11T10:57:14.174Z,96018.33
2018-04-11T10:59:40.048Z,96020.96
2018-04-11T11:02:05.930Z,96020.41
2018-04-11T11:04:31.804Z,96021.97
2018-04-11T11:06:57.658Z,96015.67
2018-04-11T11:09:23.508Z,96016.77
2018-04-11T11:11:49.355Z,96011.78
2018-04-11T11:14:15.258Z,96013.33
2018-04-11T11:16:41.080Z,96003.62
2018-04-11T11:19:06.948Z,96006.86
2018-04-11T11:21:32.777Z,96002.47
2018-04-11T11:23:58.667Z,95998.05
2018-04-11T11:26:24.561Z,95995.22
2018-04-11T11:28:50.517Z,96002.53
2018-04-11T11:31:16.425Z,95995.27
2018-04-11T11:33:42.287Z,95988.86
2018-04-11T11:36:08.151Z,95985.48
2018-04-11T11:38:34.005Z,95978.61
2018-04-11T11:40:59.878Z,95979.42
2018-04-11T11:43:25.707Z,95981.91
2018-04-11T11:45:51.603Z,95978.03
2018-04-11T11:48:17.429Z,95981.59
2018-04-11T11:50:43.263Z,95973.69
2018-04-11T11:53:09.123Z,95974.55
2018-04-11T11:55:34.957Z,95975.79
2018-04-11T11:58:00.824Z,95970.98
2018-04-11T12:00:26.676Z,95967.63
2018-04-11T12:02:52.536Z,95973.47
2018-04-11T12:05:18.386Z,95961.90
2018-04-11T12:07:44.217Z,95969.59
2018-04-11T12:10:10.076Z,95964.72
2018-04-11T12:12:35.920Z,95958.23
2018-04-11T12:15:01.769Z,95964.64
2018-04-11T12:17:27.627Z,95962.00
2018-04-11T12:19:53.460Z,95955.66
2018-04-11T12:22:19.344Z,95961.20
2018-04-11T12:24:45.185Z,95952.47
2018-04-11T12:27:11.032Z,95938.52
2018-04-11T12:29:36.959Z,95928.53
2018-04-11T12:32:02.792Z,95935.17
2018-04-11T12:34:28.649Z,95932.80
2018-04-11T12:36:54.500Z,95927.64
2018-04-11T12:39:20.347Z,95925.13
2018-04-11T12:41:46.203Z,95922.99
2018-04-11T12:44:12.067Z,95923.37
2018-04-11T12:46:37.905Z,95919.62
2018-04-11T12:49:03.792Z,95915.54
2018-04-11T12:51:29.676Z,95907.72
2018-04-11T12:53:55.569Z,95911.90
2018-04-11T12:56:21.460Z,95911.21
2018-04-11T12:58:47.317Z,95905.56
2018-04-11T13:01:13.193Z,95904.45
2018-04-11T13:03:39.012Z,95895.04
2018-04-11T13:06:04.871Z,95901.84
2018-04-11T13:08:30.729Z,95900.05
2018-04-11T13:10:56.581Z,95897.75
2018-04-11T13:13:22.425Z,95897.41
2018-04-11T13:15:48.293Z,95891.80
2018-04-11T13:18:14.175Z,95890.80
2018-04-11T13:20:40.032Z,95890.30
2018-04-11T13:23:05.891Z,95884.06
2018-04-11T13:25:31.777Z,95880.81
2018-04-11T13:27:57.657Z,95876.40
2018-04-11T13:30:23.506Z,95875.30
2018-04-11T13:32:49.387Z,95874.16
2018-04-11T13:35:15.232Z,95871.57
2018-04-11T13:37:41.125Z,95864.89
2018-04-11T13:40:06.989Z,95850.34
2018-04-11T13:42:32.863Z,95866.18
2018-04-11T13:44:58.741Z,95855.52
2018-04-11T13:47:24.672Z,95858.34
2018-04-11T13:49:50.524Z,95859.79
2018-04-11T13:52:16.394Z,95864.52
2018-04-11T13:54:42.272Z,95861.95
2018-04-11T13:57:08.120Z,95867.31
2018-04-11T13:59:34.283Z,95864.13
2018-04-11T14:02:00.218Z,95868.04
2018-04-11T14:04:26.143Z,95867.63
2018-04-11T14:06:52.021Z,95864.05
2018-04-11T14:09:17.929Z,95854.70
2018-04-11T14:11:43.800Z,95855.09
2018-04-11T14:14:09.676Z,95852.13
2018-04-11T14:16:35.561Z,95843.66
2018-04-11T14:19:01.426Z,95855.08
2018-04-11T14:21:27.301Z,95858.17
2018-04-11T14:23:53.193Z,95859.67
2018-04-11T14:26:19.082Z,95859.61
2018-04-11T14:28:44.928Z,95860.87
2018-04-11T14:31:10.843Z,95858.43
2018-04-11T14:33:36.701Z,95855.39
2018-04-11T14:36:02.602Z,95862.86
2018-04-11T14:38:28.476Z,95861.23
2018-04-11T14:40:54.434Z,95852.77
2018-04-11T14:43:20.261Z,95842.09
2018-04-11T14:45:46.155Z,95848.17
2018-04-11T14:48:12.082Z,95844.03
2018-04-11T14:50:38.741Z,95844.22
2018-04-11T14:53:04.625Z,95847.83
2018-04-11T14:55:30.536Z,95842.16
2018-04-11T14:57:56.392Z,95842.46
2018-04-11T15:00:22.270Z,95841.77
2018-04-11T15:02:48.352Z,95840.33
2018-04-11T15:05:14.243Z,95835.65
2018-04-11T15:07:40.153Z,95842.27
2018-04-11T15:10:06.018Z,95846.85
2018-04-11T15:12:31.890Z,95854.86
2018-04-11T15:14:57.743Z,95845.70
2018-04-11T15:17:23.632Z,95851.23
2018-04-11T15:19:49.552Z,95851.64
2018-04-11T15:22:15.441Z,95846.16
2018-04-11T15:24:41.321Z,95850.74
2018-04-11T15:27:07.831Z,95842.39
2018-04-11T15:29:33.743Z,95851.94
2018-04-11T15:32:01.201Z,95847.80
2018-04-11T15:34:27.164Z,95848.72
2018-04-11T15:36:52.998Z,95841.80
2018-04-11T15:39:18.901Z,95841.11
2018-04-11T15:41:44.806Z,95846.84
2018-04-11T15:44:10.676Z,95845.43
2018-04-11T15:46:37.555Z,95835.33
2018-04-11T15:49:04.331Z,95838.95
2018-04-11T15:51:30.229Z,95841.63
2018-04-11T15:53:56.747Z,95842.42
2018-04-11T15:56:22.602Z,95841.65
2018-04-11T15:58:48.527Z,95834.96
2018-04-11T16:01:14.418Z,95836.52
2018-04-11T16:03:40.329Z,95831.55
2018-04-11T16:06:06.201Z,95829.18
2018-04-11T16:08:32.139Z,95826.27
2018-04-11T16:10:59.053Z,95827.64
2018-04-11T16:13:27.681Z,95820.55
2018-04-11T16:15:56.919Z,95822.39
2018-04-11T16:18:22.854Z,95817.58
2018-04-11T16:20:48.733Z,95818.37
2018-04-11T16:23:14.631Z,95817.78
2018-04-11T16:25:40.528Z,95806.91
2018-04-11T16:28:06.452Z,95808.23
2018-04-11T16:30:32.355Z,95806.70
2018-04-11T16:32:58.273Z,95794.30
2018-04-11T16:35:24.601Z,95800.80
2018-04-11T16:37:50.560Z,95792.78
2018-04-11T16:40:16.460Z,95792.02
2018-04-11T16:42:42.358Z,95796.02
2018-04-11T16:45:08.408Z,95792.39
2018-04-11T16:47:34.343Z,95791.25
2018-04-11T16:50:00.196Z,95790.10
2018-04-11T16:52:26.093Z,95798.50
2018-04-11T16:54:51.952Z,95794.09
2018-04-11T16:57:17.818Z,95792.77
2018-04-11T16:59:43.784Z,95797.17
2018-04-11T17:02:09.681Z,95792.79
2018-04-11T17:04:35.597Z,95800.03
2018-04-11T17:07:01.518Z,95792.78
2018-04-11T17:09:27.443Z,95799.45
2018-04-11T17:11:53.318Z,95799.84
2018-04-11T17:14:19.305Z,95795.83
2018-04-11T17:16:45.180Z,95798.90
2018-04-11T17:19:11.107Z,95797.55
2018-04-11T17:21:49.222Z,95801.38
2018-04-11T17:24:27.317Z,95802.91
2018-04-11T17:27:05.565Z,95803.08
2018-04-11T17:29:43.837Z,95803.86
2018-04-11T17:32:09.755Z,95804.23
2018-04-11T17:34:35.660Z,95798.70
2018-04-11T17:37:01.556Z,95796.78
2018-04-11T17:39:27.449Z,95797.92
2018-04-11T17:41:53.365Z,95798.47
2018-04-11T17:44:19.289Z,95798.80
2018-04-11T17:46:45.202Z,95803.18
2018-04-11T17:49:11.092Z,95804.48
2018-04-11T17:51:37.007Z,95799.14
2018-04-11T17:54:02.936Z,95807.52
2018-04-11T17:56:28.855Z,95796.47
2018-04-11T17:58:54.717Z,95800.62
2018-04-11T18:01:20.592Z,95801.34
2018-04-11T18:03:46.478Z,95801.75
2018-04-11T18:06:12.452Z,95799.98
2018-04-11T18:08:39.336Z,95797.09
2018-04-11T18:11:05.236Z,95806.94
2018-04-11T18:13:31.178Z,95805.15
2018-04-11T18:15:57.082Z,95802.67
2018-04-11T18:18:23.001Z,95806.84
2018-04-11T18:20:48.827Z,95801.52
2018-04-11T18:23:14.703Z,95797.12
2018-04-11T18:25:40.605Z,95802.98
2018-04-11T18:28:06.526Z,95802.45
2018-04-11T18:30:32.894Z,95808.59
2018-04-11T18:32:59.060Z,95800.58
2018-04-11T18:35:24.986Z,95795.79
2018-04-11T18:37:50.865Z,95801.13
2018-04-11T18:40:16.861Z,95798.20
2018-04-11T18:42:42.872Z,95792.77
2018-04-11T18:45:08.790Z,95796.48
2018-04-11T18:47:34.709Z,95794.98
2018-04-11T18:50:00.598Z,95797.28
2018-04-11T18:52:26.488Z,95794.02
2018-04-11T18:54:52.408Z,95792.72
2018-04-11T18:57:18.392Z,95793.47
2018-04-11T18:59:44.269Z,95791.17
2018-04-11T19:02:10.187Z,95785.31
2018-04-11T19:04:36.065Z,95778.73
2018-04-11T19:07:01.983Z,95772.78
2018-04-11T19:09:27.872Z,95771.17
2018-04-11T19:11:53.741Z,95775.48
2018-04-11T19:14:19.626Z,95769.23
2018-04-11T19:16:45.517Z,95769.89
2018-04-11T19:19:12.382Z,95770.06
2018-04-11T19:21:38.327Z,95754.94
2018-04-11T19:24:05.004Z,95748.43
2018-04-11T19:26:30.921Z,95753.52
2018-04-11T19:28:56.862Z,95749.50
2018-04-11T19:31:22.742Z,95745.64
2018-04-11T19:33:48.626Z,95745.39
2018-04-11T19:39:15.784Z,95739.91
2018-04-11T19:41:41.657Z,95740.64
2018-04-11T19:44:07.566Z,95739.09
2018-04-11T19:46:33.535Z,95733.67
2018-04-11T19:48:59.536Z,95727.52
2018-04-11T19:51:25.465Z,95729.56
2018-04-11T19:53:51.357Z,95726.55
2018-04-11T19:56:17.496Z,95722.91
2018-04-11T19:58:43.454Z,95719.69
2018-04-11T20:01:09.339Z,95723.11
2018-04-11T20:03:36.329Z,95715.96
2018-04-11T20:06:02.254Z,95725.23
2018-04-11T20:08:28.161Z,95721.82
2018-04-11T20:10:54.056Z,95721.44
2018-04-11T20:13:20.012Z,95716.59
2018-04-11T20:15:45.923Z,95710.45
2018-04-11T20:18:11.861Z,95714.44
2018-04-11T20:20:37.767Z,95715.27
2018-04-11T20:23:03.690Z,95726.91
2018-04-11T20:25:29.582Z,95716.78
2018-04-11T20:27:55.494Z,95713.24
2018-04-11T20:30:21.405Z,95717.59
2018-04-11T20:32:47.278Z,95711.66
2018-04-11T20:35:13.151Z,95715.73
2018-04-11T20:37:39.085Z,95715.53
2018-04-11T20:40:04.961Z,95717.24
2018-04-11T20:42:30.825Z,95714.61
2018-04-11T20:44:56.721Z,95710.37
2018-04-11T20:47:22.588Z,95712.24
2018-04-11T20:49:48.448Z,95709.08
2018-04-11T20:52:14.365Z,95709.52
2018-04-11T20:54:40.249Z,95700.20
2018-04-11T20:57:06.142Z,95709.31
2018-04-11T20:59:31.982Z,95704.81
2018-04-11T21:01:57.810Z,95698.67
2018-04-11T21:04:23.666Z,95706.45
2018-04-11T21:06:49.545Z,95694.52
2018-04-11T21:09:15.405Z,95697.03
2018-04-11T21:11:41.284Z,95696.70
2018-04-11T21:14:07.122Z,95690.88
2018-04-11T21:16:33.001Z,95688.69
2018-04-11T21:18:58.876Z,95689.41
2018-04-11T21:21:24.748Z,95682.11
2018-04-11T21:23:50.598Z,95679.10
2018-04-11T21:26:16.456Z,95679.19
2018-04-11T21:28:42.312Z,95674.48
2018-04-11T21:31:08.168Z,95673.16
2018-04-11T21:33:34.074Z,95661.35
2018-04-11T21:35:59.972Z,95670.70
2018-04-11T21:38:25.836Z,95675.24
2018-04-11T21:40:51.676Z,95667.09
2018-04-11T21:43:17.532Z,95664.84
2018-04-11T21:45:43.401Z,95656.82
2018-04-11T21:48:09.241Z,95657.09
2018-04-11T21:50:35.117Z,95646.80
2018-04-11T21:53:00.975Z,95646.33
2018-04-11T21:55:26.864Z,95643.52
2018-04-11T21:57:52.721Z,95642.05
2018-04-11T22:00:18.598Z,95643.96
2018-04-11T22:02:44.465Z,95643.61
2018-04-11T22:05:10.344Z,95642.77
2018-04-11T22:07:36.224Z,95629.94
2018-04-11T22:10:02.086Z,95627.64
2018-04-11T22:12:27.959Z,95630.25
2018-04-11T22:14:53.817Z,95626.05
2018-04-11T22:17:19.692Z,95618.95
2018-04-11T22:19:45.541Z,95625.08
2018-04-11T22:22:11.429Z,95612.97
2018-04-11T22:24:37.286Z,95614.16
2018-04-11T22:27:03.220Z,95611.75
2018-04-11T22:29:29.153Z,95618.39
2018-04-11T22:31:55.026Z,95611.09
2018-04-11T22:34:20.937Z,95610.19
2018-04-11T22:36:46.812Z,95614.19
2018-04-11T22:39:12.640Z,95607.47
2018-04-11T22:41:38.472Z,95604.92
2018-04-11T22:44:04.348Z,95595.82
2018-04-11T22:46:30.217Z,95587.77
2018-04-11T22:48:56.072Z,95599.98
2018-04-11T22:51:21.948Z,95597.77
2018-04-11T22:53:47.840Z,95598.98
2018-04-11T22:56:13.730Z,95596.45
2018-04-11T22:58:39.604Z,95601.09
2018-04-11T23:01:05.550Z,95597.19
2018-04-11T23:03:31.440Z,95590.72
2018-04-11T23:05:57.281Z,95588.30
2018-04-11T23:08:23.137Z,95594.23
2018-04-11T23:10:49.059Z,95588.55
2018-04-11T23:13:14.933Z,95586.08
2018-04-11T23:15:40.832Z,95586.84
2018-04-11T23:18:06.693Z,95582.86
2018-04-11T23:20:32.593Z,95576.62
2018-04-11T23:22:58.524Z,95578.81
2018-04-11T23:25:24.381Z,95570.52
2018-04-11T23:27:50.245Z,95577.33
2018-04-11T23:30:16.120Z,95566.97
2018-04-11T23:32:41.986Z,95565.69
2018-04-11T23:35:07.872Z,95568.25
2018-04-11T23:37:33.750Z,95562.92
2018-04-11T23:39:59.639Z,95558.49
2018-04-11T23:42:25.485Z,95548.00
2018-04-11T23:44:51.376Z,95550.83
2018-04-11T23:47:17.215Z,95546.45
2018-04-11T23:49:43.058Z,95542.07
2018-04-11T23:52:08.884Z,95541.02
2018-04-11T23:54:34.694Z,95540.66
2018-04-11T23:57:00.552Z,95545.80
2018-04-11T23:59:26.393Z,95542.73
